Time;durP1;ratioP1;P1;durP2;ratioP2;P2;SDS_P1;SDS_P2;PMS_P1;PMS_P2;Temp;Humidity;BMP_temperature;BMP_pressure;BME280_temperature;BME280_humidity;BME280_pressure;Samples;Min_cycle;Max_cycle;Signal;HPM_P1;HPM_P2
2021/10/10 00:03:28;;;;;;;;;;;;;;;;;;;;;
2021/10/10 00:10:19;;;;;;;;;;;;;;;;;;;;;
2021/10/10 00:14:18;;;;;;;2.12;0.95;;;7.80;99.90;;;;;;4355385;32;20086;-67
2021/10/10 00:17:37;;;;;;;1.35;0.75;;;7.70;99.90;;;;;;4374195;32;20078;-68
2021/10/10 00:23:29;;;;;;;1.45;1.08;;;7.70;99.90;;;;;;4337938;33;20136;-69
2021/10/10 00:26:57;;;;;;;1.98;1.50;;;7.70;99.90;;;;;;4337732;33;20127;-69
2021/10/10 01:01:02;;;;;;;1.60;1.27;;;7.20;99.90;;;;;;4252943;33;20086;-69
2021/10/10 01:04:07;;;;;;;1.80;1.15;;;7.20;99.90;;;;;;4257053;33;20600;-69
2021/10/10 01:07:57;;;;;;;;;;;;;;;;;;;;;
2021/10/10 01:11:17;;;;;;;;;;;;;;;;;;;;;
2021/10/10 01:28:04;;;;;;;2.30;1.15;;;6.80;99.90;;;;;;4225209;33;20086;-69
2021/10/10 01:45:05;;;;;;;;;;;;;;;;;;;;;
2021/10/10 01:52:03;;;;;;;1.33;1.20;;;6.60;99.90;;;;;;4196835;34;20612;-68
2021/10/10 01:59:16;;;;;;;;;;;;;;;;;;;;;
2021/10/10 02:01:54;;;;;;;0.68;0.68;;;6.50;99.90;;;;;;4250321;33;20150;-68
2021/10/10 02:04:58;;;;;;;2.37;1.17;;;6.40;99.90;;;;;;4249023;33;20119;-68
2021/10/10 02:07:58;;;;;;;;;;;6.50;99.90;;;;;;4274703;33;20083;-68
2021/10/10 02:11:15;;;;;;;;;;;;;;;;;;;;;
2021/10/10 02:14:36;;;;;;;;;;;;;;;;;;;;;
2021/10/10 02:18:12;;;;;;;;;;;;;;;;;;;;;
2021/10/10 02:21:50;;;;;;;;;;;;;;;;;;;;;
2021/10/10 02:24:53;;;;;;;;;;;;;;;;;;;;;
2021/10/10 02:38:28;;;;;;;1.10;0.88;;;6.10;99.90;;;;;;4373965;32;20102;-69
2021/10/10 02:41:45;;;;;;;0.65;0.65;;;6.20;99.90;;;;;;4383513;32;20473;-69
2021/10/10 03:08:38;;;;;;;1.83;1.12;;;6.10;99.90;;;;;;4293950;33;20080;-70
2021/10/10 03:15:10;;;;;;;1.83;1.05;;;6.00;99.90;;;;;;4309249;33;20133;-71
2021/10/10 03:35:27;;;;;;;1.37;1.15;;;5.80;99.90;;;;;;4294853;33;20141;-68
2021/10/10 03:38:15;;;;;;;1.15;1.02;;;5.60;99.90;;;;;;4318059;33;20513;-68
2021/10/10 03:57:47;;;;;;;0.73;0.73;;;5.90;99.90;;;;;;4294804;33;20129;-68
2021/10/10 04:03:38;;;;;;;1.27;1.17;;;5.70;99.90;;;;;;4294314;33;20505;-72
2021/10/10 04:06:39;;;;;;;4.18;1.58;;;5.70;99.90;;;;;;4321033;33;20431;-68
2021/10/10 04:09:57;;;;;;;;;;;;;;;;;;;;;
2021/10/10 04:13:07;;;;;;;;;;;;;;;;;;;;;
2021/10/10 04:19:48;;;;;;;1.65;1.05;;;5.50;99.90;;;;;;4293589;33;20098;-69
2021/10/10 04:23:14;;;;;;;;;;;;;;;;;;;;;
2021/10/10 04:26:31;;;;;;;1.35;1.17;;;5.40;99.90;;;;;;4290354;33;20172;-68
2021/10/10 04:29:52;;;;;;;0.60;0.60;;;5.30;99.90;;;;;;4308295;33;20084;-68
2021/10/10 04:32:43;;;;;;;;;;;5.30;99.90;;;;;;4321205;32;20556;-70
2021/10/10 04:39:10;;;;;;;;;;;5.40;99.90;;;;;;4337891;32;20491;-69
2021/10/10 04:48:26;;;;;;;;;;;5.40;99.90;;;;;;4318531;32;20547;-68
2021/10/10 04:51:42;;;;;;;;;;;;;;;;;;;;;
2021/10/10 04:54:54;;;;;;;1.33;1.20;;;5.30;99.90;;;;;;4335671;32;20087;-70
2021/10/10 05:04:46;;;;;;;;;;;;;;;;;;;;;
2021/10/10 05:08:02;;;;;;;1.23;1.20;;;5.30;99.90;;;;;;4394673;32;20085;-71
2021/10/10 05:11:11;;;;;;;4.35;1.33;;;5.20;99.90;;;;;;4416504;32;20074;-69
2021/10/10 05:14:08;;;;;;;5.18;1.17;;;5.30;99.90;;;;;;4402206;32;20416;-69
2021/10/10 05:16:44;;;;;;;3.22;1.27;;;5.10;99.90;;;;;;4401663;32;20086;-69
2021/10/10 05:25:47;;;;;;;0.30;0.30;;;5.10;99.90;;;;;;4402303;32;20130;-68
2021/10/10 05:32:34;;;;;;;1.37;1.05;;;5.10;99.90;;;;;;4416678;32;20516;-70
2021/10/10 05:35:20;;;;;;;2.70;1.52;;;5.10;99.90;;;;;;4369420;32;20130;-70
2021/10/10 05:38:38;;;;;;;3.60;2.22;;;5.10;99.90;;;;;;4359094;32;20442;-70
2021/10/10 05:42:22;;;;;;;0.50;0.50;;;5.10;99.90;;;;;;4353626;33;20075;-68
2021/10/10 05:45:11;;;;;;;2.83;1.30;;;5.10;99.90;;;;;;4350465;33;20104;-69
2021/10/10 05:48:33;;;;;;;5.15;1.65;;;5.00;99.90;;;;;;4396718;32;20125;-67
2021/10/10 05:51:32;;;;;;;;;;;5.00;99.90;;;;;;4361686;32;20063;-68
2021/10/10 06:01:13;;;;;;;;;;;;;;;;;;;;;
2021/10/10 06:11:23;;;;;;;4.62;0.98;;;5.10;99.90;;;;;;4339833;33;20096;-68
2021/10/10 06:20:59;;;;;;;2.67;1.23;;;5.30;99.90;;;;;;4368717;32;20099;-70
2021/10/10 06:26:37;;;;;;;0.98;0.98;;;5.40;99.90;;;;;;4376114;32;20114;-70
2021/10/10 06:29:40;;;;;;;21.42;1.45;;;5.50;99.90;;;;;;4400589;32;20074;-68
2021/10/10 06:32:46;;;;;;;1.77;1.52;;;5.40;99.90;;;;;;4400667;32;20126;-69
2021/10/10 06:45:24;;;;;;;1.17;1.10;;;5.70;99.90;;;;;;4353464;32;20518;-68
2021/10/10 06:52:02;;;;;;;2.83;1.58;;;5.70;99.90;;;;;;4295168;33;20112;-70
2021/10/10 06:58:08;;;;;;;2.03;0.75;;;6.00;99.90;;;;;;4294562;33;20097;-68
2021/10/10 07:04:21;;;;;;;1.10;1.00;;;6.20;99.90;;;;;;4292108;33;20064;-68
2021/10/10 07:10:11;;;;;;;2.58;0.80;;;6.40;99.90;;;;;;4286980;33;20072;-68
2021/10/10 07:13:19;;;;;;;;;;;;;;;;;;;;;
2021/10/10 07:16:37;;;;;;;2.45;1.42;;;6.60;99.90;;;;;;4279968;33;20098;-70
2021/10/10 07:26:10;;;;;;;2.22;1.00;;;6.90;99.90;;;;;;4360575;32;20116;-69
2021/10/10 07:32:33;;;;;;;1.73;0.98;;;7.00;99.90;;;;;;4368208;32;20163;-69
2021/10/10 07:38:07;;;;;;;2.30;1.08;;;7.10;99.90;;;;;;4381214;32;20087;-69
2021/10/10 07:43:46;;;;;;;;;;;;;;;;;;;;;
2021/10/10 07:50:05;;;;;;;1.37;1.27;;;7.40;99.90;;;;;;4352553;33;20094;-69
2021/10/10 07:55:51;;;;;;;1.67;1.48;;;7.80;99.90;;;;;;4337557;33;20124;-68
2021/10/10 08:02:05;;;;;;;1.95;1.35;;;8.00;99.90;;;;;;4359242;32;20625;-69
2021/10/10 08:07:43;;;;;;;0.90;0.77;;;7.90;99.90;;;;;;4360820;32;20138;-70
2021/10/10 08:10:12;;;;;;;3.05;1.23;;;8.10;99.90;;;;;;4367578;32;20063;-70
2021/10/10 08:12:44;;;;;;;8.88;0.98;;;8.10;99.90;;;;;;4388259;32;20105;-70
2021/10/10 08:15:52;;;;;;;;;;;;;;;;;;;;;
2021/10/10 08:18:31;;;;;;;1.40;0.95;;;8.20;99.90;;;;;;4321903;32;20076;-68
2021/10/10 08:21:43;;;;;;;12.20;1.55;;;8.30;99.90;;;;;;4399878;32;20070;-69
2021/10/10 08:24:56;;;;;;;10.18;1.80;;;8.50;99.90;;;;;;4389159;32;20093;-69
2021/10/10 08:27:43;;;;;;;1.02;0.95;;;8.60;99.90;;;;;;4399960;32;20085;-69
2021/10/10 08:30:55;;;;;;;2.33;1.45;;;8.80;99.90;;;;;;4401796;32;20111;-73
2021/10/10 08:37:30;;;;;;;1.65;0.50;;;8.80;99.90;;;;;;4386794;32;20491;-68
2021/10/10 08:40:26;;;;;;;1.50;1.12;;;8.90;99.90;;;;;;4339847;33;20086;-69
2021/10/10 08:47:01;;;;;;;1.35;0.80;;;9.20;99.90;;;;;;4300495;33;20087;-68
2021/10/10 08:52:56;;;;;;;3.92;1.98;;;9.50;99.90;;;;;;4340021;33;20417;-68
2021/10/10 08:55:52;;;;;;;3.60;1.23;;;9.60;99.90;;;;;;4340643;33;20549;-70
2021/10/10 08:58:45;;;;;;;;;;;;;;;;;;;;;
2021/10/10 09:01:18;;;;;;;2.50;1.45;;;9.90;99.90;;;;;;4325008;33;20072;-68
2021/10/10 09:03:49;;;;;;;3.25;1.85;;;10.00;99.90;;;;;;4337279;33;20082;-72
2021/10/10 09:13:30;;;;;;;;;;;;;;;;;;;;;
2021/10/10 09:16:23;;;;;;;2.62;1.67;;;10.40;99.90;;;;;;4298271;33;20075;-68
2021/10/10 09:23:04;;;;;;;;;;;;;;;;;;;;;
2021/10/10 09:43:18;;;;;;;7.15;2.30;;;11.50;99.90;;;;;;4310157;33;20089;-74
2021/10/10 10:24:03;;;;;;;2.45;0.73;;;12.40;97.20;;;;;;4297018;33;20096;-67
2021/10/10 10:27:12;;;;;;;7.18;2.55;;;12.40;96.60;;;;;;4294045;33;20081;-66
2021/10/10 10:41:45;;;;;;;;;;;;;;;;;;;;;
2021/10/10 10:45:33;;;;;;;2.03;1.12;;;12.70;96.80;;;;;;4225204;34;20081;-68
2021/10/10 10:59:02;;;;;;;2.65;1.15;;;12.90;96.20;;;;;;4251929;33;20106;-68
2021/10/10 11:16:54;;;;;;;0.45;0.45;;;13.60;95.30;;;;;;4265727;33;20121;-68
2021/10/10 11:20:09;;;;;;;4.03;1.23;;;13.70;95.50;;;;;;4260145;33;20076;-68
2021/10/10 11:39:52;;;;;;;18.50;1.20;;;14.60;92.00;;;;;;4295671;33;20145;-70
2021/10/10 11:43:11;;;;;;;;;;;;;;;;;;;;;
2021/10/10 11:53:00;;;;;;;0.80;0.80;;;16.60;87.70;;;;;;4294833;33;20089;-69
2021/10/10 11:56:00;;;;;;;;;;;17.20;87.00;;;;;;4295163;33;20518;-69
2021/10/10 12:17:08;;;;;;;0.82;0.77;;;18.70;75.50;;;;;;4180673;34;20190;-69
2021/10/10 12:19:49;;;;;;;1.83;1.08;;;19.10;77.00;;;;;;4205694;33;20121;-68
2021/10/10 12:22:17;;;;;;;;;;;19.10;78.20;;;;;;4264537;33;20096;-67
2021/10/10 12:24:44;;;;;;;0.55;0.55;;;19.00;76.20;;;;;;4325516;32;20308;-69
2021/10/10 12:27:09;;;;;;;0.47;0.45;;;19.20;77.40;;;;;;4405811;32;20070;-69
2021/10/10 12:29:43;;;;;;;4.90;0.80;;;19.30;75.80;;;;;;4412734;32;20081;-69
2021/10/10 12:32:30;;;;;;;9.45;1.30;;;19.80;74.70;;;;;;4411929;32;20098;-69
2021/10/10 12:35:15;;;;;;;0.40;0.40;;;20.40;74.60;;;;;;4412950;32;20452;-69
2021/10/10 12:37:50;;;;;;;0.75;0.75;;;20.30;73.80;;;;;;4401669;32;20098;-69
2021/10/10 12:40:27;;;;;;;0.73;0.73;;;20.10;72.80;;;;;;4397724;32;20058;-69
2021/10/10 12:42:53;;;;;;;0.40;0.40;;;19.80;72.70;;;;;;4398006;32;20082;-69
2021/10/10 12:45:28;;;;;;;5.22;0.70;;;20.10;71.10;;;;;;4397935;32;20083;-69
2021/10/10 12:47:59;;;;;;;0.85;0.75;;;19.20;72.50;;;;;;4397859;32;20078;-69
2021/10/10 12:50:25;;;;;;;1.65;0.77;;;18.90;72.40;;;;;;4398151;32;20070;-69
2021/10/10 12:52:50;;;;;;;1.75;1.12;;;18.70;74.70;;;;;;4397624;32;20459;-69
2021/10/10 12:55:21;;;;;;;1.10;0.90;;;18.10;75.30;;;;;;4397850;32;20066;-69
2021/10/10 12:57:52;;;;;;;0.47;0.47;;;17.50;76.00;;;;;;4398318;32;20129;-69
2021/10/10 13:00:18;;;;;;;;;;;17.20;76.30;;;;;;4399302;32;20426;-69
2021/10/10 13:02:44;;;;;;;1.17;0.75;;;16.90;78.40;;;;;;4398842;32;19964;-69
2021/10/10 13:05:10;;;;;;;1.10;0.60;;;16.70;77.20;;;;;;4411998;32;20058;-68
2021/10/10 13:07:37;;;;;;;0.50;0.50;;;16.50;77.00;;;;;;4411363;32;20094;-68
2021/10/10 13:10:04;;;;;;;0.70;0.70;;;16.50;79.20;;;;;;4404067;32;20058;-69
2021/10/10 13:12:29;;;;;;;1.58;0.88;;;16.40;79.40;;;;;;4402426;32;20132;-69
2021/10/10 13:14:56;;;;;;;0.40;0.40;;;16.30;78.80;;;;;;4399421;32;20098;-68
2021/10/10 13:17:22;;;;;;;6.40;2.25;;;16.20;79.50;;;;;;4400906;32;20110;-68
2021/10/10 13:19:48;;;;;;;2.78;1.08;;;16.10;78.80;;;;;;4404951;32;20154;-68
2021/10/10 13:22:14;;;;;;;6.82;1.30;;;16.10;80.40;;;;;;4409137;32;20518;-69
2021/10/10 13:24:41;;;;;;;0.85;0.75;;;15.90;81.00;;;;;;4406230;32;20397;-69
2021/10/10 13:27:06;;;;;;;1.00;0.85;;;16.00;80.30;;;;;;4406301;32;20132;-69
2021/10/10 13:29:32;;;;;;;0.60;0.60;;;16.30;79.20;;;;;;4405669;32;20066;-69
2021/10/10 13:31:57;;;;;;;2.05;0.82;;;16.40;78.20;;;;;;4399525;32;20069;-69
2021/10/10 13:34:23;;;;;;;0.80;0.80;;;16.30;75.20;;;;;;4402362;32;20062;-68
2021/10/10 13:36:51;;;;;;;0.60;0.60;;;16.00;77.00;;;;;;4400376;32;20070;-69
2021/10/10 13:39:17;;;;;;;8.82;0.65;;;16.00;79.90;;;;;;4399832;32;20074;-68
2021/10/10 13:41:45;;;;;;;0.50;0.50;;;16.00;79.20;;;;;;4404590;32;20077;-69
2021/10/10 13:44:10;;;;;;;0.57;0.57;;;15.90;79.40;;;;;;4400740;32;20082;-69
2021/10/10 13:46:37;;;;;;;0.60;0.60;;;16.00;82.30;;;;;;4401584;32;20093;-69
2021/10/10 13:49:04;;;;;;;0.60;0.60;;;15.80;77.50;;;;;;4409911;32;20074;-69
2021/10/10 13:51:29;;;;;;;1.62;0.80;;;15.60;77.60;;;;;;4413248;32;20120;-69
2021/10/10 13:53:56;;;;;;;1.08;0.70;;;15.40;80.30;;;;;;4402113;32;20097;-69
2021/10/10 13:56:22;;;;;;;1.73;0.90;;;15.40;80.70;;;;;;4404232;32;20066;-69
2021/10/10 13:58:47;;;;;;;1.00;0.77;;;15.40;80.30;;;;;;4399301;32;20083;-69
2021/10/10 14:01:12;;;;;;;0.50;0.50;;;15.40;80.80;;;;;;4409247;32;20471;-69
2021/10/10 14:03:41;;;;;;;0.68;0.68;;;15.40;79.40;;;;;;4401313;32;20057;-69
2021/10/10 14:06:06;;;;;;;2.95;0.80;;;15.40;81.80;;;;;;4408380;32;20083;-69
2021/10/10 14:08:32;;;;;;;0.65;0.65;;;15.40;81.50;;;;;;4409904;32;20414;-69
2021/10/10 14:10:57;;;;;;;0.47;0.47;;;15.30;80.20;;;;;;4399979;32;20374;-70
2021/10/10 14:13:23;;;;;;;1.45;0.95;;;15.30;82.30;;;;;;4400171;32;20127;-69
2021/10/10 14:15:52;;;;;;;2.28;0.82;;;15.30;80.80;;;;;;4404372;32;20086;-69
2021/10/10 14:18:19;;;;;;;0.75;0.70;;;15.30;82.20;;;;;;4414396;32;20074;-69
2021/10/10 14:20:46;;;;;;;1.75;1.25;;;15.20;81.00;;;;;;4408993;32;20444;-69
2021/10/10 14:23:13;;;;;;;0.50;0.50;;;15.10;81.50;;;;;;4398325;32;20508;-69
2021/10/10 14:25:40;;;;;;;0.60;0.60;;;15.00;82.70;;;;;;4405015;32;20070;-69
2021/10/10 14:28:07;;;;;;;0.65;0.62;;;15.10;80.40;;;;;;4399631;32;20063;-69
2021/10/10 14:30:33;;;;;;;8.50;1.73;;;15.10;79.80;;;;;;4399634;32;20069;-69
2021/10/10 14:32:58;;;;;;;5.07;1.70;;;15.10;81.40;;;;;;4398440;32;20070;-69
2021/10/10 14:35:24;;;;;;;3.25;1.40;;;15.00;81.30;;;;;;4402297;32;20066;-69
2021/10/10 14:37:53;;;;;;;9.13;1.08;;;15.00;81.90;;;;;;4405437;32;20062;-69
2021/10/10 14:40:19;;;;;;;1.20;1.08;;;15.00;82.30;;;;;;4402833;32;20120;-69
2021/10/10 14:43:04;;;;;;;0.62;0.50;;;14.90;81.50;;;;;;4414117;32;20062;-69
2021/10/10 14:45:32;;;;;;;0.52;0.50;;;15.00;81.40;;;;;;4410150;32;20073;-69
2021/10/10 14:48:08;;;;;;;0.50;0.50;;;15.10;81.00;;;;;;4399197;32;20309;-69
2021/10/10 14:50:36;;;;;;;0.57;0.57;;;15.10;83.50;;;;;;4398215;32;20495;-69
2021/10/10 14:53:01;;;;;;;1.80;1.25;;;15.00;80.60;;;;;;4401629;32;20062;-69
2021/10/10 14:55:27;;;;;;;2.45;1.37;;;15.00;80.20;;;;;;4412841;32;20069;-69
2021/10/10 14:57:55;;;;;;;2.25;1.08;;;15.00;81.30;;;;;;4413813;32;20140;-69
2021/10/10 15:00:21;;;;;;;6.32;2.03;;;15.00;81.20;;;;;;4406061;32;20065;-69
2021/10/10 15:02:47;;;;;;;1.00;0.82;;;14.90;81.30;;;;;;4402841;32;20101;-69
2021/10/10 15:05:13;;;;;;;2.33;1.35;;;14.80;80.60;;;;;;4406159;32;20078;-69
2021/10/10 15:07:40;;;;;;;1.48;1.00;;;14.90;81.60;;;;;;4404182;32;20562;-69
2021/10/10 15:10:08;;;;;;;0.90;0.50;;;14.90;81.80;;;;;;4398285;32;20531;-69
2021/10/10 15:12:35;;;;;;;2.53;1.30;;;14.90;81.70;;;;;;4408978;32;20558;-69
2021/10/10 15:15:04;;;;;;;1.15;0.80;;;14.80;83.20;;;;;;4413432;32;20065;-70
2021/10/10 15:17:29;;;;;;;1.75;0.82;;;14.70;83.20;;;;;;4413268;32;20058;-69
2021/10/10 15:19:55;;;;;;;1.10;0.98;;;14.50;84.90;;;;;;4403494;32;20127;-69
2021/10/10 15:22:20;;;;;;;3.62;1.77;;;14.50;84.20;;;;;;4403881;32;20097;-69
2021/10/10 15:24:46;;;;;;;0.80;0.57;;;14.40;85.80;;;;;;4398779;32;20069;-69
2021/10/10 15:27:12;;;;;;;0.60;0.60;;;14.30;86.70;;;;;;4400434;32;20086;-69
2021/10/10 15:29:37;;;;;;;0.50;0.50;;;14.30;85.50;;;;;;4411519;32;20077;-69
2021/10/10 15:32:04;;;;;;;1.55;1.35;;;14.30;86.60;;;;;;4405429;32;20073;-70
2021/10/10 15:34:31;;;;;;;0.65;0.65;;;14.20;85.90;;;;;;4413616;32;20086;-69
2021/10/10 15:36:57;;;;;;;1.85;0.80;;;14.10;88.10;;;;;;4403551;32;20101;-69
2021/10/10 15:39:23;;;;;;;0.62;0.60;;;14.00;87.80;;;;;;4398968;32;20082;-69
2021/10/10 15:41:48;;;;;;;1.50;1.02;;;14.00;92.20;;;;;;4402475;32;20065;-69
2021/10/10 15:44:17;;;;;;;1.37;1.00;;;13.80;93.80;;;;;;4403345;32;20121;-69
2021/10/10 15:46:42;;;;;;;0.50;0.50;;;13.70;93.10;;;;;;4398816;32;20070;-69
2021/10/10 15:49:09;;;;;;;1.42;1.25;;;13.60;94.40;;;;;;4405009;32;20249;-70
2021/10/10 15:51:35;;;;;;;0.62;0.62;;;13.50;92.50;;;;;;4400978;32;20432;-69
2021/10/10 15:54:02;;;;;;;8.40;0.70;;;13.40;92.40;;;;;;4398377;32;20083;-69
2021/10/10 15:56:28;;;;;;;0.57;0.57;;;13.40;91.50;;;;;;4408105;32;20081;-69
2021/10/10 15:58:53;;;;;;;0.70;0.70;;;13.30;90.60;;;;;;4406719;32;20417;-69
2021/10/10 16:01:19;;;;;;;0.82;0.80;;;13.30;91.90;;;;;;4400860;32;20083;-69
2021/10/10 16:03:44;;;;;;;6.45;0.75;;;13.30;94.00;;;;;;4400712;32;20078;-69
2021/10/10 16:06:10;;;;;;;16.25;0.95;;;13.20;95.00;;;;;;4402358;32;20136;-69
2021/10/10 16:08:36;;;;;;;1.95;0.70;;;13.00;95.00;;;;;;4398417;32;20409;-69
2021/10/10 16:11:03;;;;;;;0.65;0.65;;;12.90;95.40;;;;;;4403777;32;20070;-69
2021/10/10 16:13:29;;;;;;;0.45;0.45;;;12.80;95.70;;;;;;4401035;32;20133;-69
2021/10/10 16:15:54;;;;;;;1.25;1.00;;;12.70;96.30;;;;;;4408363;32;20077;-69
2021/10/10 16:18:20;;;;;;;1.02;0.90;;;12.60;95.90;;;;;;4408762;32;20081;-69
2021/10/10 16:20:45;;;;;;;0.70;0.70;;;12.50;96.20;;;;;;4399482;32;20122;-69
2021/10/10 16:23:11;;;;;;;2.05;0.95;;;12.40;97.30;;;;;;4401388;32;20403;-69
2021/10/10 16:25:36;;;;;;;0.50;0.50;;;12.30;97.50;;;;;;4400485;32;20413;-69
2021/10/10 16:28:02;;;;;;;0.45;0.45;;;12.30;97.80;;;;;;4409439;32;20082;-70
2021/10/10 16:30:28;;;;;;;4.70;1.55;;;12.10;97.80;;;;;;4409371;32;20082;-69
2021/10/10 16:32:56;;;;;;;11.55;1.15;;;12.00;98.40;;;;;;4401804;32;20121;-69
2021/10/10 16:35:33;;;;;;;0.82;0.82;;;11.90;98.30;;;;;;4403804;32;20124;-69
2021/10/10 16:38:11;;;;;;;1.67;1.12;;;11.90;99.30;;;;;;4399625;32;20065;-69
2021/10/10 16:40:56;;;;;;;8.15;0.75;;;11.90;99.10;;;;;;4397410;32;20610;-69
2021/10/10 16:43:26;;;;;;;0.52;0.43;;;11.80;99.70;;;;;;4394066;32;20429;-69
2021/10/10 16:45:53;;;;;;;0.82;0.82;;;11.60;99.90;;;;;;4397816;32;20078;-69
2021/10/10 16:48:19;;;;;;;3.92;1.65;;;11.60;99.90;;;;;;4398856;32;20086;-69
2021/10/10 16:50:44;;;;;;;2.03;0.98;;;11.50;99.90;;;;;;4401547;32;20499;-69
2021/10/10 16:53:10;;;;;;;0.68;0.68;;;11.50;99.90;;;;;;4400764;32;20070;-69
2021/10/10 16:55:35;;;;;;;0.57;0.57;;;11.50;99.90;;;;;;4400576;32;20062;-69
2021/10/10 16:58:06;;;;;;;0.77;0.70;;;11.40;99.90;;;;;;4399645;32;20582;-69
2021/10/10 17:00:34;;;;;;;10.50;0.85;;;11.30;99.90;;;;;;4399469;32;20074;-69
2021/10/10 17:02:59;;;;;;;0.50;0.50;;;11.10;99.90;;;;;;4400275;32;20073;-70
2021/10/10 17:05:25;;;;;;;10.10;2.95;;;11.00;99.90;;;;;;4400545;32;20086;-69
2021/10/10 17:07:50;;;;;;;2.37;1.23;;;11.00;99.90;;;;;;4399466;32;20130;-69
2021/10/10 17:10:16;;;;;;;1.33;1.23;;;11.00;99.90;;;;;;4387014;32;20135;-69
2021/10/10 17:12:41;;;;;;;1.92;1.05;;;11.00;99.90;;;;;;4399870;32;20065;-69
2021/10/10 17:15:07;;;;;;;0.88;0.85;;;10.80;99.90;;;;;;4400101;32;20125;-69
2021/10/10 17:17:32;;;;;;;1.27;0.95;;;10.70;99.90;;;;;;4399394;32;20121;-69
2021/10/10 17:19:58;;;;;;;0.60;0.60;;;10.60;99.90;;;;;;4413319;32;20461;-69
2021/10/10 17:22:23;;;;;;;0.77;0.77;;;10.40;99.90;;;;;;4415406;32;20081;-69
2021/10/10 17:24:52;;;;;;;3.15;1.23;;;10.40;99.90;;;;;;4414346;32;20121;-70
2021/10/10 17:27:19;;;;;;;1.30;1.20;;;10.40;99.90;;;;;;4414577;32;20388;-69
2021/10/10 17:29:45;;;;;;;1.80;1.27;;;10.40;99.90;;;;;;4415491;32;20069;-69
2021/10/10 17:32:12;;;;;;;1.52;0.88;;;10.40;99.90;;;;;;4415324;32;20086;-69
2021/10/10 17:34:38;;;;;;;0.70;0.70;;;10.30;99.90;;;;;;4415388;32;20465;-69
2021/10/10 17:37:04;;;;;;;5.85;1.77;;;10.10;99.90;;;;;;4407753;32;20062;-69
2021/10/10 17:39:29;;;;;;;1.27;0.85;;;10.00;99.90;;;;;;4401061;32;20066;-68
2021/10/10 17:41:55;;;;;;;32.63;1.95;;;10.10;99.90;;;;;;4400018;32;20083;-69
2021/10/10 17:44:25;;;;;;;6.15;0.82;;;10.10;99.90;;;;;;4399822;32;20058;-68
2021/10/10 17:46:51;;;;;;;2.15;1.62;;;10.20;99.90;;;;;;4400342;32;20577;-68
2021/10/10 17:49:17;;;;;;;1.73;1.05;;;10.10;99.90;;;;;;4400250;32;20067;-68
2021/10/10 17:51:42;;;;;;;4.80;1.33;;;10.00;99.90;;;;;;4399673;32;20074;-69
2021/10/10 17:54:08;;;;;;;5.68;1.83;;;10.00;99.90;;;;;;4401721;32;20108;-70
2021/10/10 17:56:35;;;;;;;18.58;0.70;;;10.10;99.90;;;;;;4400524;32;20066;-68
2021/10/10 17:59:12;;;;;;;1.00;0.73;;;10.10;99.90;;;;;;4399292;32;20132;-69
2021/10/10 18:10:48;;;;;;;0.73;0.73;;;9.70;99.90;;;;;;4399738;32;20063;-69
2021/10/10 18:13:17;;;;;;;0.80;0.80;;;9.60;99.90;;;;;;4399471;32;20089;-68
2021/10/10 18:15:46;;;;;;;3.17;2.05;;;9.60;99.90;;;;;;4400242;32;20471;-69
2021/10/10 18:18:11;;;;;;;0.77;0.77;;;9.70;99.90;;;;;;4402542;32;20082;-67
2021/10/10 18:20:37;;;;;;;1.15;0.85;;;9.60;99.90;;;;;;4415784;32;20085;-68
2021/10/10 18:23:06;;;;;;;0.90;0.88;;;9.40;99.90;;;;;;4415223;32;20077;-68
2021/10/10 18:25:31;;;;;;;11.02;3.97;;;9.30;99.90;;;;;;4415603;32;20066;-67
2021/10/10 18:27:57;;;;;;;2.55;1.80;;;9.40;99.90;;;;;;4414523;32;20069;-68
2021/10/10 18:30:23;;;;;;;2.62;1.00;;;9.50;99.90;;;;;;4415297;32;20066;-69
2021/10/10 18:33:40;;;;;;;3.28;1.90;;;9.60;99.90;;;;;;4414049;32;20077;-68
2021/10/10 18:36:17;;;;;;;1.15;1.00;;;9.40;99.90;;;;;;4412885;32;20070;-70
2021/10/10 18:38:45;;;;;;;4.20;1.50;;;9.30;99.90;;;;;;4400714;32;20113;-70
2021/10/10 18:41:17;;;;;;;3.58;1.15;;;9.10;99.90;;;;;;4400521;32;20425;-67
2021/10/10 18:44:10;;;;;;;4.43;1.23;;;9.10;99.90;;;;;;4399813;32;20078;-68
2021/10/10 18:46:53;;;;;;;5.57;1.35;;;9.20;99.90;;;;;;4395208;32;20086;-66
2021/10/10 18:49:22;;;;;;;2.33;1.12;;;9.40;99.90;;;;;;4400106;32;20070;-67
2021/10/10 18:59:59;;;;;;;2.10;1.60;;;9.30;99.90;;;;;;4352244;32;20147;-69
2021/10/10 19:06:56;;;;;;;;;;;;;;;;;;;;;
2021/10/10 19:14:00;;;;;;;;;;;;;;;;;;;;;
2021/10/10 19:16:45;;;;;;;1.25;1.15;;;9.40;99.90;;;;;;4270624;33;20145;-68
2021/10/10 19:36:43;;;;;;;3.75;1.45;;;9.10;99.90;;;;;;4265322;33;20093;-67
2021/10/10 19:40:14;;;;;;;4.40;1.60;;;9.10;99.90;;;;;;4280723;33;20088;-67
2021/10/10 19:45:38;;;;;;;4.75;1.30;;;9.10;99.90;;;;;;4301036;33;20120;-71
2021/10/10 19:48:51;;;;;;;3.10;1.45;;;9.10;99.90;;;;;;4397923;32;20475;-68
2021/10/10 19:51:24;;;;;;;2.50;1.45;;;9.00;99.90;;;;;;4380203;32;20070;-68
2021/10/10 19:54:00;;;;;;;11.07;1.27;;;8.90;99.90;;;;;;4414446;32;20066;-68
2021/10/10 19:56:35;;;;;;;2.08;1.65;;;8.90;99.90;;;;;;4414846;32;20074;-67
2021/10/10 19:59:04;;;;;;;0.65;0.65;;;8.80;99.90;;;;;;4414611;32;20129;-69
2021/10/10 20:01:31;;;;;;;2.17;1.40;;;8.80;99.90;;;;;;4414721;32;20066;-68
2021/10/10 20:03:57;;;;;;;2.40;1.48;;;8.80;99.90;;;;;;4414017;32;20073;-67
2021/10/10 20:06:23;;;;;;;1.58;1.25;;;8.90;99.90;;;;;;4414745;32;20086;-69
2021/10/10 20:08:50;;;;;;;5.72;0.98;;;8.90;99.90;;;;;;4414943;32;20547;-68
2021/10/10 20:11:19;;;;;;;6.90;2.50;;;8.80;99.90;;;;;;4414239;32;20518;-68
2021/10/10 20:13:45;;;;;;;1.27;1.17;;;8.80;99.90;;;;;;4414643;32;20065;-68
2021/10/10 20:16:11;;;;;;;7.35;1.30;;;8.60;99.90;;;;;;4413922;32;20078;-68
2021/10/10 20:18:37;;;;;;;2.00;1.45;;;8.50;99.90;;;;;;4413845;32;20128;-68
2021/10/10 20:21:04;;;;;;;1.33;1.23;;;8.70;99.90;;;;;;4414143;32;20117;-68
2021/10/10 20:23:30;;;;;;;5.72;0.95;;;8.70;99.90;;;;;;4414184;32;20081;-68
2021/10/10 20:26:18;;;;;;;1.15;1.05;;;8.70;99.90;;;;;;4414142;32;20090;-67
2021/10/10 20:28:47;;;;;;;3.87;1.23;;;8.60;99.90;;;;;;4413886;32;20128;-68
2021/10/10 20:31:12;;;;;;;1.85;1.17;;;8.60;99.90;;;;;;4413886;32;20531;-68
2021/10/10 20:33:38;;;;;;;1.62;1.02;;;8.70;99.90;;;;;;4414127;32;20086;-68
2021/10/10 20:36:08;;;;;;;0.88;0.73;;;8.80;99.90;;;;;;4413158;32;20077;-69
2021/10/10 20:38:34;;;;;;;2.22;0.90;;;8.80;99.90;;;;;;4399064;32;20081;-69
2021/10/10 20:41:00;;;;;;;1.55;1.45;;;8.70;99.90;;;;;;4398894;32;20103;-67
2021/10/10 20:43:29;;;;;;;0.70;0.68;;;8.60;99.90;;;;;;4399088;32;20524;-68
2021/10/10 20:46:19;;;;;;;6.35;3.20;;;8.40;99.90;;;;;;4398815;32;20066;-69
2021/10/10 20:49:05;;;;;;;1.77;1.00;;;8.30;99.90;;;;;;4399505;32;20078;-68
2021/10/10 20:51:44;;;;;;;;;;;;;;;;;;;;;
2021/10/10 20:57:53;;;;;;;0.98;0.93;;;8.00;99.90;;;;;;4389278;32;20066;-68
2021/10/10 21:00:43;;;;;;;0.80;0.80;;;8.10;99.90;;;;;;4413738;32;20081;-68
2021/10/10 21:03:37;;;;;;;4.68;1.98;;;8.10;99.90;;;;;;4413371;32;20074;-68
2021/10/10 21:06:44;;;;;;;1.92;1.33;;;8.20;99.90;;;;;;4410507;32;20530;-68
2021/10/10 21:09:52;;;;;;;2.70;1.50;;;8.20;99.90;;;;;;4413620;32;20077;-70
2021/10/10 21:13:30;;;;;;;;;;;;;;;;;;;;;
2021/10/10 21:16:47;;;;;;;1.85;1.52;;;8.20;99.90;;;;;;4306422;33;20101;-68
2021/10/10 21:20:22;;;;;;;;;;;;;;;;;;;;;
2021/10/10 21:23:20;;;;;;;;;;;;;;;;;;;;;
2021/10/10 21:29:57;;;;;;;21.17;3.80;;;7.90;99.90;;;;;;4322283;33;20148;-68
2021/10/10 21:47:19;;;;;;;;;;;;;;;;;;;;;
2021/10/10 21:57:16;;;;;;;;;;;;;;;;;;;;;
2021/10/10 22:10:48;;;;;;;2.75;1.90;;;7.60;99.90;;;;;;4312432;33;20081;-69
2021/10/10 22:17:17;;;;;;;3.10;1.15;;;7.30;99.90;;;;;;4254728;33;20100;-66
2021/10/10 22:23:22;;;;;;;1.65;1.37;;;7.40;99.90;;;;;;4254168;33;20470;-67
2021/10/10 22:26:58;;;;;;;0.70;0.70;;;7.30;99.90;;;;;;4339181;33;20083;-67
2021/10/10 22:30:19;;;;;;;8.25;3.53;;;7.20;99.90;;;;;;4338871;33;20555;-69
2021/10/10 22:31:33;;;;;;;2.50;1.58;;;7.20;99.90;;;;;;4349504;33;20433;-71
2021/10/10 22:34:02;;;;;;;0.90;0.90;;;7.10;99.90;;;;;;4401326;32;20078;-68
2021/10/10 22:36:30;;;;;;;1.10;0.90;;;7.20;99.90;;;;;;4404588;32;20081;-69
2021/10/10 22:38:56;;;;;;;0.50;0.50;;;7.30;99.90;;;;;;4416103;32;20121;-68
2021/10/10 22:41:21;;;;;;;0.85;0.82;;;7.30;99.90;;;;;;4415415;32;20226;-68
2021/10/10 22:43:47;;;;;;;2.67;1.27;;;7.30;99.90;;;;;;4415964;32;20426;-69
2021/10/10 22:46:13;;;;;;;4.75;1.33;;;7.10;99.90;;;;;;4415685;32;20440;-67
2021/10/10 22:48:40;;;;;;;3.58;1.45;;;7.10;99.90;;;;;;4416189;32;20069;-68
2021/10/10 22:51:06;;;;;;;1.40;1.02;;;7.10;99.90;;;;;;4409002;32;20406;-68
2021/10/10 22:53:32;;;;;;;2.22;1.12;;;7.10;99.90;;;;;;4400783;32;20453;-68
2021/10/10 22:55:58;;;;;;;1.75;1.30;;;6.90;99.90;;;;;;4400524;32;20069;-69
2021/10/10 22:58:23;;;;;;;2.83;1.25;;;6.70;99.90;;;;;;4399426;32;20608;-68
2021/10/10 23:00:49;;;;;;;2.55;1.30;;;6.70;99.90;;;;;;4400256;32;20078;-68
2021/10/10 23:03:15;;;;;;;2.33;1.33;;;6.60;99.90;;;;;;4400139;32;20070;-67
2021/10/10 23:05:41;;;;;;;0.95;0.88;;;6.50;99.90;;;;;;4399358;32;20069;-66
2021/10/10 23:08:16;;;;;;;1.17;0.80;;;6.60;99.90;;;;;;4400366;32;20139;-68
2021/10/10 23:10:41;;;;;;;3.33;1.33;;;6.40;99.90;;;;;;4400183;32;20524;-68